JST938 YBCS-YBBN
Flight info
| Callsign | JST938 |
|---|---|
| Flight time | N/A |
| Altitude | 37000 |
| Route | CS Y177 BN |
| Aircraft | A320/M-SDE3FGHIRWY/LB1 |
Departure
| Time | 2026-04-27 09:24 |
|---|---|
| Airport | Cairns International Airport (YBCS) |
Arrival
| Time | N/A |
|---|---|
| Airport | Brisbane International Airport (YBBN) |
| Time | Latitude | Longitude | Altitude | Speed | Heading |
|---|---|---|---|---|---|
| 2026-04-27 08:44 | -16.87723 | 145.75268 | 13 ft | 0 kts | 66° |
| 2026-04-27 09:12 | -16.87724 | 145.75265 | 12 ft | 2 kts | 66° |
| 2026-04-27 09:12 | -16.87732 | 145.75247 | 12 ft | 3 kts | 60° |
| 2026-04-27 09:12 | -16.87743 | 145.75229 | 12 ft | 3 kts | 52° |
| 2026-04-27 09:13 | -16.87756 | 145.75213 | 14 ft | 2 kts | 43° |
| 2026-04-27 09:13 | -16.87761 | 145.75209 | 14 ft | 0 kts | 41° |
| 2026-04-27 09:15 | -16.87760 | 145.75209 | 14 ft | 0 kts | 28° |
| 2026-04-27 09:15 | -16.87745 | 145.75200 | 13 ft | 5 kts | 335° |
| 2026-04-27 09:16 | -16.87712 | 145.75181 | 12 ft | 6 kts | 331° |
| 2026-04-27 09:16 | -16.87668 | 145.75154 | 12 ft | 8 kts | 326° |
| 2026-04-27 09:16 | -16.87640 | 145.75110 | 12 ft | 7 kts | 242° |
| 2026-04-27 09:16 | -16.87661 | 145.75061 | 12 ft | 8 kts | 256° |
| 2026-04-27 09:17 | -16.87628 | 145.75030 | 13 ft | 8 kts | 340° |
| 2026-04-27 09:17 | -16.87576 | 145.75006 | 13 ft | 9 kts | 336° |
| 2026-04-27 09:17 | -16.87518 | 145.74980 | 14 ft | 10 kts | 336° |
| 2026-04-27 09:17 | -16.87453 | 145.74949 | 2 ft | 11 kts | 335° |
| 2026-04-27 09:18 | -16.87372 | 145.74910 | -5 ft | 15 kts | 335° |
| 2026-04-27 09:18 | -16.87271 | 145.74861 | -7 ft | 17 kts | 335° |
| 2026-04-27 09:18 | -16.87159 | 145.74806 | -7 ft | 18 kts | 335° |
| 2026-04-27 09:18 | -16.87059 | 145.74759 | -8 ft | 13 kts | 329° |
| 2026-04-27 09:19 | -16.87052 | 145.74698 | -10 ft | 0 kts | 250° |
| 2026-04-27 09:22 | -16.87069 | 145.74646 | -9 ft | 22 kts | 251° |
| 2026-04-27 09:22 | -16.87106 | 145.74595 | -9 ft | 0 kts | 157° |
| 2026-04-27 09:23 | -16.87125 | 145.74603 | -9 ft | 19 kts | 157° |
| 2026-04-27 09:23 | -16.87473 | 145.74759 | 0 ft | 87 kts | 156° |
| 2026-04-27 09:23 | -16.88198 | 145.75083 | 35 ft | 134 kts | 157° |
| 2026-04-27 09:24 | -16.88992 | 145.75471 | 680 ft | 129 kts | 149° |
| 2026-04-27 09:24 | -16.89700 | 145.76146 | 1185 ft | 149 kts | 127° |
| 2026-04-27 09:24 | -16.90110 | 145.77186 | 1814 ft | 163 kts | 103° |
| 2026-04-27 09:24 | -16.90061 | 145.78409 | 2493 ft | 179 kts | 77° |
| 2026-04-27 09:25 | -16.89422 | 145.79627 | 3058 ft | 209 kts | 56° |
| 2026-04-27 09:25 | -16.88299 | 145.80690 | 3880 ft | 223 kts | 41° |
| 2026-04-27 09:25 | -16.87000 | 145.81560 | 4989 ft | 222 kts | 36° |
| 2026-04-27 09:25 | -16.85701 | 145.82393 | 6077 ft | 215 kts | 41° |
| 2026-04-27 09:26 | -16.84573 | 145.83409 | 6963 ft | 220 kts | 56° |
| 2026-04-27 09:26 | -16.83850 | 145.84847 | 7303 ft | 242 kts | 84° |
| 2026-04-27 09:26 | -16.84062 | 145.86612 | 7867 ft | 256 kts | 117° |
| 2026-04-27 09:26 | -16.85252 | 145.88029 | 8618 ft | 270 kts | 148° |
| 2026-04-27 09:27 | -16.87028 | 145.88794 | 9451 ft | 283 kts | 162° |
| 2026-04-27 09:27 | -16.88936 | 145.89418 | 10361 ft | 289 kts | 162° |
| 2026-04-27 09:27 | -16.90922 | 145.90078 | 10899 ft | 312 kts | 163° |
| 2026-04-27 09:27 | -16.93059 | 145.90785 | 11391 ft | 332 kts | 164° |
| 2026-04-27 09:28 | -16.95279 | 145.91566 | 12176 ft | 342 kts | 160° |
| 2026-04-27 09:28 | -16.97463 | 145.92647 | 13001 ft | 352 kts | 155° |
| 2026-04-27 09:28 | -16.99609 | 145.93950 | 13829 ft | 361 kts | 152° |
| 2026-04-27 09:28 | -17.01748 | 145.95375 | 14580 ft | 368 kts | 150° |
| 2026-04-27 09:29 | -17.03907 | 145.96843 | 15363 ft | 373 kts | 150° |
| 2026-04-27 09:29 | -17.06105 | 145.98317 | 16159 ft | 378 kts | 151° |
| 2026-04-27 09:29 | -17.08347 | 145.99783 | 16955 ft | 383 kts | 151° |
| 2026-04-27 09:29 | -17.10638 | 146.01243 | 17672 ft | 391 kts | 152° |
| 2026-04-27 09:30 | -17.13030 | 146.02741 | 17939 ft | 412 kts | 152° |
| 2026-04-27 09:30 | -17.15565 | 146.04314 | 18011 ft | 436 kts | 152° |
| 2026-04-27 09:30 | -17.18245 | 146.05974 | 18019 ft | 459 kts | 152° |
| 2026-04-27 09:30 | -17.21053 | 146.07717 | 18013 ft | 479 kts | 152° |
| 2026-04-27 09:31 | -17.23911 | 146.09496 | 18911 ft | 476 kts | 152° |
| 2026-04-27 09:31 | -17.26790 | 146.11288 | 19308 ft | 486 kts | 152° |
| 2026-04-27 09:31 | -17.29738 | 146.13120 | 19493 ft | 500 kts | 152° |
| 2026-04-27 09:31 | -17.32689 | 146.14958 | 19364 ft | 487 kts | 152° |
| 2026-04-27 09:32 | -17.35547 | 146.16744 | 19317 ft | 459 kts | 152° |
| 2026-04-27 09:32 | -17.38107 | 146.18365 | 20345 ft | 412 kts | 152° |
| 2026-04-27 09:32 | -17.40484 | 146.19897 | 20495 ft | 391 kts | 151° |
| 2026-04-27 09:32 | -17.42776 | 146.21375 | 20632 ft | 390 kts | 152° |
| 2026-04-27 09:33 | -17.45136 | 146.22875 | 20809 ft | 402 kts | 152° |
| 2026-04-27 09:33 | -17.47550 | 146.24397 | 21208 ft | 407 kts | 152° |
| 2026-04-27 09:33 | -17.49989 | 146.25934 | 21665 ft | 411 kts | 152° |
| 2026-04-27 09:33 | -17.52448 | 146.27486 | 22125 ft | 414 kts | 152° |
| 2026-04-27 09:34 | -17.54927 | 146.29048 | 22595 ft | 417 kts | 152° |
| 2026-04-27 09:34 | -17.57425 | 146.30620 | 23059 ft | 420 kts | 152° |
| 2026-04-27 09:34 | -17.59943 | 146.32202 | 23496 ft | 424 kts | 152° |
| 2026-04-27 09:34 | -17.62446 | 146.33779 | 23863 ft | 427 kts | 152° |
| 2026-04-27 09:35 | -17.65033 | 146.35411 | 24243 ft | 429 kts | 152° |
| 2026-04-27 09:35 | -17.67599 | 146.37032 | 24621 ft | 432 kts | 152° |
| 2026-04-27 09:35 | -17.70172 | 146.38659 | 25004 ft | 434 kts | 152° |
| 2026-04-27 09:35 | -17.72731 | 146.40276 | 25363 ft | 436 kts | 152° |
| 2026-04-27 09:36 | -17.75336 | 146.41922 | 25745 ft | 438 kts | 152° |
| 2026-04-27 09:36 | -17.77953 | 146.43578 | 26108 ft | 440 kts | 152° |
| 2026-04-27 09:36 | -17.80582 | 146.45241 | 26482 ft | 442 kts | 152° |
| 2026-04-27 09:36 | -17.83223 | 146.46913 | 26836 ft | 444 kts | 152° |
| 2026-04-27 09:37 | -17.85877 | 146.48594 | 27190 ft | 447 kts | 152° |
| 2026-04-27 09:37 | -17.88545 | 146.50282 | 27548 ft | 449 kts | 152° |
| 2026-04-27 09:37 | -17.91227 | 146.51978 | 27896 ft | 451 kts | 152° |
| 2026-04-27 09:37 | -17.93922 | 146.53684 | 28241 ft | 453 kts | 152° |
| 2026-04-27 09:38 | -17.96630 | 146.55400 | 28583 ft | 456 kts | 152° |
| 2026-04-27 09:38 | -17.99351 | 146.57126 | 28925 ft | 458 kts | 152° |
| 2026-04-27 09:38 | -18.02085 | 146.58861 | 29264 ft | 460 kts | 152° |
| 2026-04-27 09:38 | -18.04833 | 146.60602 | 29593 ft | 462 kts | 152° |
| 2026-04-27 09:39 | -18.07596 | 146.62350 | 29926 ft | 465 kts | 152° |
| 2026-04-27 09:39 | -18.10364 | 146.64105 | 30254 ft | 466 kts | 152° |
| 2026-04-27 09:39 | -18.13134 | 146.65870 | 30634 ft | 465 kts | 152° |
| 2026-04-27 09:39 | -18.15903 | 146.67636 | 31010 ft | 465 kts | 152° |
| 2026-04-27 09:40 | -18.18672 | 146.69400 | 31358 ft | 465 kts | 152° |
| 2026-04-27 09:40 | -18.21445 | 146.71162 | 31713 ft | 466 kts | 152° |
| 2026-04-27 09:40 | -18.24221 | 146.72923 | 32069 ft | 466 kts | 152° |
| 2026-04-27 09:40 | -18.26998 | 146.74686 | 32430 ft | 466 kts | 152° |
| 2026-04-27 09:41 | -18.29776 | 146.76451 | 32787 ft | 467 kts | 152° |
| 2026-04-27 09:41 | -18.32555 | 146.78220 | 33153 ft | 467 kts | 152° |
| 2026-04-27 09:41 | -18.35334 | 146.79992 | 33524 ft | 467 kts | 152° |
| 2026-04-27 09:41 | -18.38131 | 146.81731 | 33895 ft | 467 kts | 153° |
| 2026-04-27 09:42 | -18.40959 | 146.83412 | 34205 ft | 467 kts | 154° |
| 2026-04-27 09:42 | -18.43809 | 146.85058 | 34454 ft | 468 kts | 155° |
| 2026-04-27 09:42 | -18.46672 | 146.86691 | 34673 ft | 470 kts | 155° |
| 2026-04-27 09:42 | -18.49558 | 146.88340 | 34903 ft | 472 kts | 155° |
| 2026-04-27 09:43 | -18.52433 | 146.90002 | 35171 ft | 473 kts | 155° |
| 2026-04-27 09:43 | -18.55305 | 146.91683 | 35476 ft | 472 kts | 155° |
| 2026-04-27 09:43 | -18.58170 | 146.93373 | 35754 ft | 472 kts | 155° |
| 2026-04-27 09:43 | -18.61037 | 146.95066 | 35982 ft | 473 kts | 155° |
| 2026-04-27 09:44 | -18.63909 | 146.96762 | 36225 ft | 473 kts | 155° |
| 2026-04-27 09:44 | -18.66785 | 146.98461 | 36455 ft | 474 kts | 155° |
| 2026-04-27 09:44 | -18.69669 | 147.00160 | 36663 ft | 475 kts | 155° |
| 2026-04-27 09:44 | -18.72557 | 147.01861 | 36884 ft | 476 kts | 156° |
| 2026-04-27 09:45 | -18.75455 | 147.03568 | 37003 ft | 479 kts | 156° |
| 2026-04-27 09:45 | -18.81342 | 147.07029 | 37021 ft | 490 kts | 156° |
| 2026-04-27 09:46 | -18.87357 | 147.10567 | 37033 ft | 499 kts | 155° |
| 2026-04-27 09:46 | -18.93454 | 147.14172 | 37025 ft | 505 kts | 155° |
| 2026-04-27 09:47 | -18.99620 | 147.17817 | 37024 ft | 510 kts | 155° |
| 2026-04-27 09:47 | -19.05843 | 147.21498 | 37028 ft | 515 kts | 154° |
| 2026-04-27 09:48 | -19.12088 | 147.25194 | 37427 ft | 510 kts | 155° |
| 2026-04-27 09:48 | -19.14129 | 147.26405 | 37674 ft | 505 kts | 155° |
| 2026-04-27 09:48 | -19.18193 | 147.28824 | 38210 ft | 497 kts | 154° |
| 2026-04-27 09:48 | -19.20187 | 147.30012 | 37730 ft | 502 kts | 154° |
| 2026-04-27 09:49 | -19.23239 | 147.31814 | 37214 ft | 496 kts | 154° |
| 2026-04-27 09:49 | -19.26226 | 147.33582 | 37067 ft | 490 kts | 154° |
| 2026-04-27 09:49 | -19.29202 | 147.35344 | 37019 ft | 490 kts | 154° |
| 2026-04-27 09:50 | -19.35162 | 147.38877 | 37034 ft | 492 kts | 154° |
| 2026-04-27 09:50 | -19.41138 | 147.42424 | 37033 ft | 493 kts | 154° |
| 2026-04-27 09:51 | -19.47118 | 147.45976 | 37037 ft | 493 kts | 154° |
| 2026-04-27 09:51 | -19.53098 | 147.49530 | 37061 ft | 492 kts | 154° |
| 2026-04-27 09:52 | -19.59064 | 147.53090 | 37064 ft | 492 kts | 154° |
| 2026-04-27 09:52 | -19.65017 | 147.56659 | 37063 ft | 491 kts | 154° |
| 2026-04-27 09:53 | -19.70962 | 147.60212 | 37069 ft | 491 kts | 154° |
| 2026-04-27 09:53 | -19.76878 | 147.63730 | 37067 ft | 490 kts | 154° |
| 2026-04-27 09:54 | -19.82829 | 147.67276 | 37079 ft | 491 kts | 154° |
| 2026-04-27 09:54 | -19.88776 | 147.70834 | 37079 ft | 490 kts | 154° |
| 2026-04-27 09:55 | -19.94717 | 147.74390 | 37079 ft | 490 kts | 154° |
| 2026-04-27 09:55 | -20.03625 | 147.79721 | 37079 ft | 490 kts | 154° |
| 2026-04-27 09:56 | -20.09554 | 147.83275 | 37080 ft | 490 kts | 154° |
| 2026-04-27 09:56 | -20.15484 | 147.86838 | 37090 ft | 489 kts | 154° |
| 2026-04-27 09:57 | -20.21426 | 147.90397 | 37086 ft | 489 kts | 154° |
| 2026-04-27 09:57 | -20.27353 | 147.93958 | 37093 ft | 490 kts | 154° |
| 2026-04-27 09:58 | -20.33288 | 147.97538 | 37086 ft | 490 kts | 154° |
| 2026-04-27 09:58 | -20.39229 | 148.01119 | 37088 ft | 491 kts | 154° |
| 2026-04-27 09:59 | -20.45177 | 148.04700 | 37088 ft | 491 kts | 154° |
| 2026-04-27 09:59 | -20.51085 | 148.08263 | 37096 ft | 491 kts | 154° |
| 2026-04-27 10:00 | -20.57023 | 148.11856 | 37093 ft | 491 kts | 154° |
| 2026-04-27 10:00 | -20.62969 | 148.15457 | 37105 ft | 491 kts | 154° |
| 2026-04-27 10:01 | -20.68919 | 148.19052 | 37103 ft | 491 kts | 154° |
| 2026-04-27 10:01 | -20.74869 | 148.22655 | 37105 ft | 492 kts | 154° |
| 2026-04-27 10:02 | -20.80825 | 148.26264 | 37121 ft | 492 kts | 155° |